sensor_id;sensor_type;location;lat;lon;timestamp;temperature;humidity
50822;DHT22;36794;51.212;6.980;2022-07-09T00:02:08;15.50;99.90
50822;DHT22;36794;51.212;6.980;2022-07-09T00:04:36;15.50;99.90
50822;DHT22;36794;51.212;6.980;2022-07-09T00:07:01;15.60;99.90
50822;DHT22;36794;51.212;6.980;2022-07-09T00:09:27;15.40;99.90
50822;DHT22;36794;51.212;6.980;2022-07-09T00:11:52;15.70;99.90
50822;DHT22;36794;51.212;6.980;2022-07-09T00:14:18;15.60;99.90
50822;DHT22;36794;51.212;6.980;2022-07-09T00:16:44;15.20;99.90
50822;DHT22;36794;51.212;6.980;2022-07-09T00:19:12;15.50;99.90
50822;DHT22;36794;51.212;6.980;2022-07-09T00:21:38;15.70;99.90
50822;DHT22;36794;51.212;6.980;2022-07-09T00:24:04;15.80;99.90
50822;DHT22;36794;51.212;6.980;2022-07-09T00:26:32;15.30;99.90
50822;DHT22;36794;51.212;6.980;2022-07-09T00:28:57;15.50;99.90
50822;DHT22;36794;51.212;6.980;2022-07-09T00:31:25;15.20;99.90
50822;DHT22;36794;51.212;6.980;2022-07-09T00:33:51;15.20;99.90
50822;DHT22;36794;51.212;6.980;2022-07-09T00:36:16;15.50;99.90
50822;DHT22;36794;51.212;6.980;2022-07-09T00:38:42;15.20;99.90
50822;DHT22;36794;51.212;6.980;2022-07-09T00:41:07;15.40;99.90
50822;DHT22;36794;51.212;6.980;2022-07-09T00:43:33;15.10;99.90
50822;DHT22;36794;51.212;6.980;2022-07-09T00:45:59;15.30;99.90
50822;DHT22;36794;51.212;6.980;2022-07-09T00:48:24;15.40;99.90
50822;DHT22;36794;51.212;6.980;2022-07-09T00:50:50;15.70;99.90
50822;DHT22;36794;51.212;6.980;2022-07-09T00:53:18;15.30;99.90
50822;DHT22;36794;51.212;6.980;2022-07-09T00:55:47;15.30;99.90
50822;DHT22;36794;51.212;6.980;2022-07-09T00:58:16;15.50;99.90
50822;DHT22;36794;51.212;6.980;2022-07-09T01:00:45;15.10;99.90
50822;DHT22;36794;51.212;6.980;2022-07-09T01:03:11;15.00;99.90
50822;DHT22;36794;51.212;6.980;2022-07-09T01:05:39;14.90;99.90
50822;DHT22;36794;51.212;6.980;2022-07-09T01:08:07;14.80;99.90
50822;DHT22;36794;51.212;6.980;2022-07-09T01:10:34;14.80;99.90
50822;DHT22;36794;51.212;6.980;2022-07-09T01:13:03;15.20;99.90
50822;DHT22;36794;51.212;6.980;2022-07-09T01:15:29;15.10;99.90
50822;DHT22;36794;51.212;6.980;2022-07-09T01:17:55;15.10;99.90
50822;DHT22;36794;51.212;6.980;2022-07-09T01:20:23;14.60;99.90
50822;DHT22;36794;51.212;6.980;2022-07-09T01:22:51;14.60;99.90
50822;DHT22;36794;51.212;6.980;2022-07-09T01:25:18;15.00;99.90
50822;DHT22;36794;51.212;6.980;2022-07-09T01:27:48;14.40;99.90
50822;DHT22;36794;51.212;6.980;2022-07-09T01:30:24;14.50;99.90
50822;DHT22;36794;51.212;6.980;2022-07-09T01:32:50;14.90;99.90
50822;DHT22;36794;51.212;6.980;2022-07-09T01:35:16;14.70;99.90
50822;DHT22;36794;51.212;6.980;2022-07-09T01:37:44;14.60;99.90
50822;DHT22;36794;51.212;6.980;2022-07-09T01:40:12;14.50;99.90
50822;DHT22;36794;51.212;6.980;2022-07-09T01:42:38;14.60;99.90
50822;DHT22;36794;51.212;6.980;2022-07-09T01:45:04;14.50;99.90
50822;DHT22;36794;51.212;6.980;2022-07-09T01:47:29;14.60;99.90
50822;DHT22;36794;51.212;6.980;2022-07-09T01:49:55;14.60;99.90
50822;DHT22;36794;51.212;6.980;2022-07-09T01:52:23;14.90;99.90
50822;DHT22;36794;51.212;6.980;2022-07-09T01:54:48;14.50;99.90
50822;DHT22;36794;51.212;6.980;2022-07-09T01:57:14;14.80;99.90
50822;DHT22;36794;51.212;6.980;2022-07-09T01:59:39;14.50;99.90
50822;DHT22;36794;51.212;6.980;2022-07-09T02:02:05;14.80;99.90
50822;DHT22;36794;51.212;6.980;2022-07-09T02:04:31;14.60;99.90
50822;DHT22;36794;51.212;6.980;2022-07-09T02:06:57;14.60;99.90
50822;DHT22;36794;51.212;6.980;2022-07-09T02:09:22;14.40;99.90
